Time,TemperatureF,DewpointF,PressureIn,WindDirection,WindDirectionDegrees,WindSpeedMPH,WindSpeedGustMPH,Humidity,HourlyPrecipIn,Conditions,Clouds,dailyrainin,SoftwareType,DateUTC
2013-03-14 00:04:00,50.9,49.2,29.90,NNW,337,0.0,-999.0,94,-99.99,,,0.00,Acu-Link.com,2013-03-14 07:04:00,
2013-03-14 00:19:00,50.9,48.9,29.90,ESE,112,0.0,-999.0,93,-99.99,,,0.00,Acu-Link.com,2013-03-14 07:19:00,
2013-03-14 00:34:00,50.4,48.5,29.91,NW,315,2.7,-999.0,93,-99.99,,,0.00,Acu-Link.com,2013-03-14 07:34:00,
2013-03-14 00:49:00,50.0,48.3,29.91,West,270,2.2,-999.0,94,-99.99,,,0.00,Acu-Link.com,2013-03-14 07:49:00,
2013-03-14 01:04:00,49.3,48.2,29.91,North,0,3.7,-999.0,96,-99.99,,,0.00,Acu-Link.com,2013-03-14 08:04:00,
2013-03-14 01:20:00,49.3,48.5,29.90,NNW,337,1.7,-999.0,97,-99.99,,,0.00,Acu-Link.com,2013-03-14 08:20:00,
2013-03-14 01:35:00,49.5,48.7,29.91,NNE,22,2.7,-999.0,97,-99.99,,,0.00,Acu-Link.com,2013-03-14 08:35:00,
2013-03-14 01:50:00,49.1,48.3,29.91,NNW,337,2.7,-999.0,97,-99.99,,,0.00,Acu-Link.com,2013-03-14 08:50:00,
2013-03-14 02:05:00,48.9,48.1,29.91,South,180,4.7,-999.0,97,-99.99,,,0.00,Acu-Link.com,2013-03-14 09:05:00,
2013-03-14 02:21:00,48.6,48.1,29.91,WNW,292,3.2,-999.0,98,-99.99,,,0.00,Acu-Link.com,2013-03-14 09:21:00,
2013-03-14 02:36:00,48.4,48.1,29.91,NW,315,4.7,-999.0,99,-99.99,,,0.00,Acu-Link.com,2013-03-14 09:36:00,
2013-03-14 02:51:00,48.4,48.1,29.91,WNW,292,2.2,-999.0,99,-99.99,,,0.00,Acu-Link.com,2013-03-14 09:51:00,
2013-03-14 03:06:00,48.4,48.1,29.91,West,270,4.2,-999.0,99,-99.99,,,0.00,Acu-Link.com,2013-03-14 10:06:00,
2013-03-14 03:22:00,48.0,47.7,29.91,NNW,337,2.7,-999.0,99,-99.99,,,0.00,Acu-Link.com,2013-03-14 10:22:00,
2013-03-14 03:37:00,47.7,47.4,29.91,NNW,337,4.7,-999.0,99,-99.99,,,0.00,Acu-Link.com,2013-03-14 10:37:00,
2013-03-14 03:52:00,47.5,47.2,29.90,WNW,292,2.7,-999.0,99,-99.99,,,0.00,Acu-Link.com,2013-03-14 10:52:00,
2013-03-14 04:08:00,47.3,47.0,29.90,North,0,1.7,-999.0,99,-99.99,,,0.00,Acu-Link.com,2013-03-14 11:08:00,
2013-03-14 04:23:00,47.3,47.0,29.89,South,180,4.2,-999.0,99,-99.99,,,0.00,Acu-Link.com,2013-03-14 11:23:00,
2013-03-14 04:39:00,47.5,47.2,29.89,West,270,0.0,-999.0,99,-99.99,,,0.00,Acu-Link.com,2013-03-14 11:39:00,
2013-03-14 04:54:00,47.5,47.2,29.90,NNW,337,2.7,-999.0,99,-99.99,,,0.00,Acu-Link.com,2013-03-14 11:54:00,
2013-03-14 05:09:00,47.5,47.2,29.90,North,0,0.0,-999.0,99,-99.99,,,0.00,Acu-Link.com,2013-03-14 12:09:00,
2013-03-14 05:24:00,47.5,47.2,29.89,WSW,247,2.2,-999.0,99,-99.99,,,0.00,Acu-Link.com,2013-03-14 12:24:00,
2013-03-14 05:39:00,47.3,47.0,29.90,North,0,1.7,-999.0,99,-99.99,,,0.00,Acu-Link.com,2013-03-14 12:39:00,
2013-03-14 05:55:00,47.3,47.0,29.90,NE,45,0.0,-999.0,99,-99.99,,,0.00,Acu-Link.com,2013-03-14 12:55:00,
2013-03-14 06:10:00,47.1,46.8,29.90,WNW,292,2.7,-999.0,99,-99.99,,,0.00,Acu-Link.com,2013-03-14 13:10:00,
2013-03-14 06:25:00,47.1,46.8,29.90,West,270,1.7,-999.0,99,-99.99,,,0.00,Acu-Link.com,2013-03-14 13:25:00,
2013-03-14 06:40:00,47.1,46.8,29.91,NW,315,1.7,-999.0,99,-99.99,,,0.00,Acu-Link.com,2013-03-14 13:40:00,
2013-03-14 06:55:00,46.9,46.6,29.91,NNW,337,2.7,-999.0,99,-99.99,,,0.00,Acu-Link.com,2013-03-14 13:55:00,
2013-03-14 07:10:00,46.9,46.6,29.91,NW,315,3.2,-999.0,99,-99.99,,,0.00,Acu-Link.com,2013-03-14 14:10:00,
2013-03-14 07:26:00,46.9,46.6,29.91,WNW,292,2.7,-999.0,99,-99.99,,,0.00,Acu-Link.com,2013-03-14 14:26:00,
2013-03-14 07:56:00,47.5,47.2,29.92,NNW,337,3.2,-999.0,99,-99.99,,,0.00,Acu-Link.com,2013-03-14 14:56:00,
2013-03-14 08:12:00,48.4,48.1,29.93,WNW,292,3.2,-999.0,99,-99.99,,,0.00,Acu-Link.com,2013-03-14 15:12:00,
2013-03-14 08:27:00,50.5,49.4,29.93,WNW,292,3.7,-999.0,96,-99.99,,,0.00,Acu-Link.com,2013-03-14 15:27:00,
2013-03-14 08:42:00,51.1,48.9,29.94,NNW,337,3.7,-999.0,92,-99.99,,,0.00,Acu-Link.com,2013-03-14 15:42:00,
2013-03-14 08:57:00,50.9,48.9,29.94,NNW,337,4.2,-999.0,93,-99.99,,,0.00,Acu-Link.com,2013-03-14 15:57:00,
2013-03-14 09:12:00,52.2,49.7,29.94,NW,315,0.0,-999.0,91,-99.99,,,0.00,Acu-Link.com,2013-03-14 16:12:00,
2013-03-14 09:28:00,53.4,49.6,29.96,West,270,2.2,-999.0,87,-99.99,,,0.00,Acu-Link.com,2013-03-14 16:28:00,
2013-03-14 09:43:00,54.1,50.0,29.96,NNW,337,1.7,-999.0,86,-99.99,,,0.00,Acu-Link.com,2013-03-14 16:43:00,
2013-03-14 09:58:00,54.0,49.9,29.97,WNW,292,3.2,-999.0,86,-99.99,,,0.00,Acu-Link.com,2013-03-14 16:58:00,
2013-03-14 10:14:00,54.1,49.7,29.97,NNW,337,4.2,-999.0,85,-99.99,,,0.00,Acu-Link.com,2013-03-14 17:14:00,
2013-03-14 10:29:00,54.1,50.0,29.96,West,270,2.7,-999.0,86,-99.99,,,0.00,Acu-Link.com,2013-03-14 17:29:00,
2013-03-14 10:44:00,56.3,50.2,29.96,NW,315,4.7,-999.0,80,-99.99,,,0.00,Acu-Link.com,2013-03-14 17:44:00,
2013-03-14 11:00:00,56.3,49.9,29.97,WNW,292,4.7,-999.0,79,-99.99,,,0.00,Acu-Link.com,2013-03-14 18:00:00,
2013-03-14 11:15:00,57.2,50.4,29.97,NW,315,3.2,-999.0,78,-99.99,,,0.00,Acu-Link.com,2013-03-14 18:15:00,
2013-03-14 11:30:00,58.8,50.9,29.97,WNW,292,3.7,-999.0,75,-99.99,,,0.00,Acu-Link.com,2013-03-14 18:30:00,
2013-03-14 11:45:00,57.4,50.2,29.98,NW,315,5.3,-999.0,77,-99.99,,,0.00,Acu-Link.com,2013-03-14 18:45:00,
2013-03-14 12:01:00,58.8,50.2,29.98,West,270,3.2,-999.0,73,-99.99,,,0.00,Acu-Link.com,2013-03-14 19:01:00,
2013-03-14 12:31:00,59.7,50.3,29.97,NNE,22,3.7,-999.0,71,-99.99,,,0.00,Acu-Link.com,2013-03-14 19:31:00,
2013-03-14 12:47:00,61.0,50.8,29.96,NNE,22,3.2,-999.0,69,-99.99,,,0.00,Acu-Link.com,2013-03-14 19:47:00,
2013-03-14 13:17:00,58.1,49.5,29.97,NNW,337,5.3,-999.0,73,-99.99,,,0.00,Acu-Link.com,2013-03-14 20:17:00,
2013-03-14 13:33:00,60.4,49.8,29.95,West,270,5.3,-999.0,68,-99.99,,,0.00,Acu-Link.com,2013-03-14 20:33:00,
2013-03-14 13:48:00,60.8,50.2,29.95,North,0,6.8,-999.0,68,-99.99,,,0.00,Acu-Link.com,2013-03-14 20:48:00,
2013-03-14 14:03:00,64.4,50.7,29.95,NNW,337,2.2,-999.0,61,-99.99,,,0.00,Acu-Link.com,2013-03-14 21:03:00,
2013-03-14 14:18:00,63.0,49.3,29.95,NNW,337,4.2,-999.0,61,-99.99,,,0.00,Acu-Link.com,2013-03-14 21:18:00,
2013-03-14 14:33:00,63.0,49.8,29.95,SSE,157,4.2,-999.0,62,-99.99,,,0.00,Acu-Link.com,2013-03-14 21:33:00,
2013-03-14 14:48:00,62.1,48.5,29.94,WNW,292,4.7,-999.0,61,-99.99,,,0.00,Acu-Link.com,2013-03-14 21:48:00,
2013-03-14 15:04:00,62.2,48.1,29.94,SW,225,3.7,-999.0,60,-99.99,,,0.00,Acu-Link.com,2013-03-14 22:04:00,
2013-03-14 15:19:00,61.9,48.3,29.94,NW,315,3.7,-999.0,61,-99.99,,,0.00,Acu-Link.com,2013-03-14 22:19:00,
2013-03-14 15:34:00,61.0,48.7,29.94,NNW,337,4.7,-999.0,64,-99.99,,,0.00,Acu-Link.com,2013-03-14 22:34:00,
2013-03-14 15:49:00,58.8,47.9,29.94,NNE,22,1.1,-999.0,67,-99.99,,,0.00,Acu-Link.com,2013-03-14 22:49:00,
2013-03-14 16:05:00,59.2,47.0,29.94,NNE,22,1.7,-999.0,64,-99.99,,,0.00,Acu-Link.com,2013-03-14 23:05:00,
2013-03-14 16:20:00,58.6,47.7,29.94,West,270,3.7,-999.0,67,-99.99,,,0.00,Acu-Link.com,2013-03-14 23:20:00,
2013-03-14 16:35:00,58.3,48.2,29.95,North,0,4.7,-999.0,69,-99.99,,,0.00,Acu-Link.com,2013-03-14 23:35:00,
2013-03-14 16:50:00,57.9,48.2,29.94,NNE,22,1.1,-999.0,70,-99.99,,,0.00,Acu-Link.com,2013-03-14 23:50:00,
2013-03-14 17:05:00,58.6,48.5,29.94,WNW,292,2.7,-999.0,69,-99.99,,,0.00,Acu-Link.com,2013-03-15 00:05:00,
2013-03-14 17:20:00,58.5,48.0,29.93,WSW,247,3.2,-999.0,68,-99.99,,,0.00,Acu-Link.com,2013-03-15 00:20:00,
2013-03-14 17:36:00,58.5,48.0,29.93,West,270,0.0,-999.0,68,-99.99,,,0.00,Acu-Link.com,2013-03-15 00:36:00,
2013-03-14 18:22:00,57.2,47.9,29.91,NE,45,2.7,-999.0,71,-99.99,,,0.00,Acu-Link.com,2013-03-15 01:22:00,
2013-03-14 18:37:00,57.0,47.7,29.91,WNW,292,3.2,-999.0,71,-99.99,,,0.00,Acu-Link.com,2013-03-15 01:37:00,
2013-03-14 18:52:00,56.1,47.9,29.92,NE,45,0.0,-999.0,74,-99.99,,,0.00,Acu-Link.com,2013-03-15 01:52:00,
2013-03-14 19:07:00,54.3,48.3,29.92,West,270,2.2,-999.0,80,-99.99,,,0.00,Acu-Link.com,2013-03-15 02:07:00,
2013-03-14 19:22:00,54.0,48.0,29.91,West,270,1.7,-999.0,80,-99.99,,,0.00,Acu-Link.com,2013-03-15 02:22:00,
2013-03-14 19:37:00,53.6,47.6,29.92,ESE,112,2.2,-999.0,80,-99.99,,,0.00,Acu-Link.com,2013-03-15 02:37:00,
2013-03-14 19:53:00,53.1,47.4,29.92,NNW,337,3.2,-999.0,81,-99.99,,,0.00,Acu-Link.com,2013-03-15 02:53:00,
2013-03-14 20:09:00,53.1,47.1,29.92,NNW,337,3.2,-999.0,80,-99.99,,,0.00,Acu-Link.com,2013-03-15 03:09:00,
2013-03-14 20:24:00,52.7,47.4,29.91,NNW,337,2.7,-999.0,82,-99.99,,,0.00,Acu-Link.com,2013-03-15 03:24:00,
2013-03-14 20:39:00,52.7,47.4,29.93,NW,315,3.7,-999.0,82,-99.99,,,0.00,Acu-Link.com,2013-03-15 03:39:00,
2013-03-14 20:55:00,51.6,47.9,29.93,SSW,202,5.3,-999.0,87,-99.99,,,0.00,Acu-Link.com,2013-03-15 03:55:00,
2013-03-14 21:10:00,51.4,48.0,29.93,East,90,1.7,-999.0,88,-99.99,,,0.00,Acu-Link.com,2013-03-15 04:10:00,
2013-03-14 21:25:00,51.3,47.9,29.93,South,180,2.2,-999.0,88,-99.99,,,0.00,Acu-Link.com,2013-03-15 04:25:00,
2013-03-14 21:41:00,50.9,47.8,29.93,NNW,337,2.7,-999.0,89,-99.99,,,0.00,Acu-Link.com,2013-03-15 04:41:00,
2013-03-14 22:11:00,50.5,46.5,29.93,SSE,157,1.7,-999.0,86,-99.99,,,0.00,Acu-Link.com,2013-03-15 05:11:00,
2013-03-14 22:42:00,50.5,47.4,29.94,NNE,22,4.2,-999.0,89,-99.99,,,0.00,Acu-Link.com,2013-03-15 05:42:00,
2013-03-14 22:57:00,50.4,47.3,29.94,WNW,292,1.1,-999.0,89,-99.99,,,0.00,Acu-Link.com,2013-03-15 05:57:00,
2013-03-14 23:12:00,50.0,47.2,29.94,NW,315,4.7,-999.0,90,-99.99,,,0.00,Acu-Link.com,2013-03-15 06:12:00,
2013-03-14 23:28:00,49.8,47.6,29.93,NW,315,3.7,-999.0,92,-99.99,,,0.00,Acu-Link.com,2013-03-15 06:28:00,
2013-03-14 23:43:00,49.5,47.6,29.93,ESE,112,0.0,-999.0,93,-99.99,,,0.00,Acu-Link.com,2013-03-15 06:43:00,
2013-03-14 23:58:00,49.3,47.6,29.93,West,270,2.2,-999.0,94,-99.99,,,0.00,Acu-Link.com,2013-03-15 06:58:00,